createdAt,value
2019-05-17T00:01:27.238Z,1.20
2019-05-17T00:05:31.841Z,1.35
2019-05-17T00:09:37.580Z,0.95
2019-05-17T00:13:42.105Z,1.12
2019-05-17T00:17:47.068Z,0.85
2019-05-17T00:21:51.697Z,0.90
2019-05-17T00:25:56.455Z,0.90
2019-05-17T00:30:01.692Z,1.20
2019-05-17T00:34:07.365Z,1.10
2019-05-17T00:38:12.391Z,1.30
2019-05-17T00:42:17.210Z,1.10
2019-05-17T00:46:21.847Z,1.35
2019-05-17T00:50:27.555Z,1.72
2019-05-17T00:54:32.562Z,1.20
2019-05-17T00:58:37.214Z,1.30
2019-05-17T01:02:41.883Z,2.35
2019-05-17T01:06:46.904Z,1.50
2019-05-17T01:10:51.980Z,1.60
2019-05-17T01:14:58.251Z,1.65
2019-05-17T01:23:07.722Z,1.20
2019-05-17T01:27:12.504Z,1.30
2019-05-17T01:31:17.337Z,1.52
2019-05-17T01:35:22.049Z,1.50
2019-05-17T01:39:26.963Z,1.60
2019-05-17T01:43:31.641Z,1.60
2019-05-17T01:47:36.843Z,1.92
2019-05-17T01:51:41.537Z,1.80
2019-05-17T01:55:46.632Z,1.80
2019-05-17T01:59:51.538Z,1.60
2019-05-17T02:03:57.474Z,2.10
2019-05-17T02:08:02.237Z,2.52
2019-05-17T02:12:06.805Z,1.67
2019-05-17T02:16:11.385Z,2.52
2019-05-17T02:20:17.554Z,2.10
2019-05-17T02:28:25.767Z,2.25
2019-05-17T02:32:33.491Z,2.30
2019-05-17T02:36:36.598Z,2.17
2019-05-17T02:40:43.023Z,2.40
2019-05-17T02:44:47.445Z,2.83
2019-05-17T02:48:53.811Z,2.35
2019-05-17T02:57:03.271Z,2.35
2019-05-17T03:01:08.342Z,2.40
2019-05-17T03:05:13.593Z,2.27
2019-05-17T03:09:18.170Z,2.63
2019-05-17T03:13:23.362Z,2.65
2019-05-17T03:17:28.493Z,3.02
2019-05-17T03:21:33.927Z,2.35
2019-05-17T03:25:38.880Z,2.22
2019-05-17T03:29:43.431Z,2.90
2019-05-17T03:33:48.321Z,2.40
2019-05-17T03:37:53.324Z,2.27
2019-05-17T03:41:58.030Z,2.50
2019-05-17T03:46:03.360Z,2.37
2019-05-17T03:50:08.405Z,2.50
2019-05-17T03:54:13.978Z,2.70
2019-05-17T03:58:19.002Z,2.37
2019-05-17T04:02:23.527Z,2.55
2019-05-17T04:06:28.068Z,2.80
2019-05-17T04:10:33.574Z,3.08
2019-05-17T04:14:38.781Z,2.70
2019-05-17T04:18:43.843Z,2.87
2019-05-17T04:22:48.869Z,2.60
2019-05-17T04:26:53.406Z,2.90
2019-05-17T04:30:57.934Z,3.05
2019-05-17T04:35:03.647Z,2.52
2019-05-17T04:39:08.761Z,3.10
2019-05-17T04:43:13.925Z,3.08
2019-05-17T04:47:18.795Z,3.00
2019-05-17T04:51:23.427Z,3.33
2019-05-17T04:55:27.945Z,3.12
2019-05-17T04:59:33.738Z,2.87
2019-05-17T05:03:38.791Z,3.05
2019-05-17T05:07:44.005Z,2.77
2019-05-17T05:11:59.672Z,2.40
2019-05-17T05:19:58.505Z,3.02
2019-05-17T05:24:03.233Z,3.00
2019-05-17T05:28:07.862Z,2.10
2019-05-17T05:32:12.410Z,2.52
2019-05-17T05:36:16.965Z,2.22
2019-05-17T05:40:21.493Z,2.40
2019-05-17T05:44:26.249Z,2.47
2019-05-17T05:48:32.636Z,1.90
2019-05-17T05:56:42.285Z,2.62
2019-05-17T06:00:47.044Z,2.22
2019-05-17T06:04:51.938Z,2.17
2019-05-17T06:08:56.606Z,1.95
2019-05-17T06:13:03.181Z,1.85
2019-05-17T06:21:12.181Z,1.90
2019-05-17T06:25:17.228Z,1.70
2019-05-17T06:29:22.248Z,1.60
2019-05-17T06:33:30.835Z,1.85
2019-05-17T06:41:36.801Z,1.37
2019-05-17T06:45:42.009Z,1.40
2019-05-17T06:49:50.506Z,2.37
2019-05-17T06:53:54.850Z,2.35
2019-05-17T06:58:01.536Z,1.77
2019-05-17T07:06:11.019Z,2.02
2019-05-17T07:14:20.060Z,4.92
2019-05-17T07:18:24.758Z,5.73
2019-05-17T07:22:29.620Z,4.83
2019-05-17T07:26:34.318Z,6.70
2019-05-17T07:30:39.898Z,6.70
2019-05-17T07:38:50.529Z,13.58
2019-05-17T07:43:06.883Z,8.78
2019-05-17T07:51:05.097Z,6.40
2019-05-17T07:55:11.114Z,7.80
2019-05-17T08:03:20.959Z,6.83
2019-05-17T08:11:30.364Z,5.67
2019-05-17T08:15:35.365Z,4.95
2019-05-17T08:19:40.340Z,5.97
2019-05-17T08:23:45.002Z,4.00
2019-05-17T08:27:50.333Z,3.80
2019-05-17T08:31:55.437Z,3.10
2019-05-17T08:36:00.817Z,4.75
2019-05-17T08:40:06.582Z,3.07
2019-05-17T08:44:11.411Z,6.70
2019-05-17T08:48:16.206Z,3.87
2019-05-17T08:52:20.745Z,3.40
2019-05-17T08:56:25.303Z,7.58
2019-05-17T09:00:31.456Z,9.18
2019-05-17T09:04:36.244Z,12.47
2019-05-17T09:08:41.013Z,11.73
2019-05-17T09:12:45.574Z,9.00
2019-05-17T09:16:50.542Z,8.48
2019-05-17T09:20:55.110Z,7.60
2019-05-17T09:24:59.713Z,14.87
2019-05-17T09:29:04.357Z,12.00
2019-05-17T09:33:11.249Z,8.63
2019-05-17T09:37:18.791Z,7.62
2019-05-17T09:41:21.814Z,11.88
2019-05-17T09:45:26.361Z,7.30
2019-05-17T09:49:30.901Z,7.65
2019-05-17T09:53:35.438Z,6.75
2019-05-17T09:57:40.897Z,6.20
2019-05-17T10:01:45.963Z,7.08
2019-05-17T10:05:50.503Z,8.28
2019-05-17T10:09:55.037Z,6.05
2019-05-17T10:14:01.393Z,7.28
2019-05-17T10:22:10.340Z,17.42
2019-05-17T10:26:15.201Z,13.17
2019-05-17T10:30:20.932Z,15.60
2019-05-17T10:34:25.919Z,18.98
2019-05-17T10:38:30.478Z,16.00
2019-05-17T10:42:35.105Z,14.58
2019-05-17T10:46:40.618Z,12.15
2019-05-17T10:50:45.638Z,17.15
2019-05-17T10:54:50.921Z,16.77
2019-05-17T10:58:55.477Z,14.83
2019-05-17T11:03:00.573Z,15.72
2019-05-17T11:07:06.829Z,18.50
2019-05-17T11:15:15.262Z,17.45
2019-05-17T11:19:19.805Z,17.70
2019-05-17T11:23:24.373Z,12.70
2019-05-17T11:27:28.922Z,12.75
2019-05-17T11:31:33.470Z,11.45
2019-05-17T11:35:38.002Z,10.72
2019-05-17T11:43:47.811Z,10.72
2019-05-17T11:47:52.342Z,11.18
2019-05-17T11:51:56.897Z,11.03
2019-05-17T11:56:01.458Z,16.17
2019-05-17T12:00:08.237Z,10.53
2019-05-17T12:04:12.742Z,9.75
2019-05-17T12:08:17.285Z,10.95
2019-05-17T12:12:21.824Z,12.28
2019-05-17T12:16:26.362Z,10.65
2019-05-17T12:20:30.906Z,9.78
2019-05-17T12:24:35.461Z,9.98
2019-05-17T12:28:39.989Z,9.08
2019-05-17T12:32:44.530Z,14.98
2019-05-17T12:36:49.057Z,10.58
2019-05-17T12:40:53.602Z,12.98
2019-05-17T12:44:58.177Z,16.07
2019-05-17T12:49:02.746Z,23.40
2019-05-17T12:53:07.298Z,18.02
2019-05-17T12:57:11.833Z,11.55
2019-05-17T13:01:16.379Z,10.05
2019-05-17T13:05:20.925Z,10.82
2019-05-17T13:09:25.458Z,8.38
2019-05-17T13:13:30.004Z,11.35
2019-05-17T13:17:34.545Z,13.55
2019-05-17T13:21:39.098Z,11.25
2019-05-17T13:25:44.181Z,11.45
2019-05-17T13:29:48.729Z,9.23
2019-05-17T13:33:53.306Z,8.45
2019-05-17T13:37:57.822Z,8.00
2019-05-17T13:42:02.366Z,12.13
2019-05-17T13:46:06.889Z,8.65
2019-05-17T13:50:11.762Z,8.00
2019-05-17T13:54:16.278Z,8.08
2019-05-17T13:58:20.799Z,7.62
2019-05-17T14:02:25.332Z,6.92
2019-05-17T14:06:29.866Z,6.72
2019-05-17T14:10:34.404Z,9.55
2019-05-17T14:14:38.930Z,13.62
2019-05-17T14:18:43.481Z,12.63
2019-05-17T14:22:48.021Z,9.05
2019-05-17T14:26:52.613Z,7.45
2019-05-17T14:30:57.162Z,5.87
2019-05-17T14:35:01.693Z,6.15
2019-05-17T14:39:07.172Z,5.45
2019-05-17T14:43:12.024Z,4.45
2019-05-17T14:47:16.562Z,5.20
2019-05-17T14:51:21.160Z,4.15
2019-05-17T14:55:25.706Z,4.92
2019-05-17T14:59:30.226Z,5.47
2019-05-17T15:03:34.757Z,9.63
2019-05-17T15:07:39.301Z,6.20
2019-05-17T15:11:43.837Z,6.55
2019-05-17T15:15:48.400Z,5.70
2019-05-17T15:19:52.994Z,4.28
2019-05-17T15:23:57.531Z,4.53
2019-05-17T15:28:02.145Z,4.17
2019-05-17T15:32:06.681Z,4.70
2019-05-17T15:36:11.210Z,3.52
2019-05-17T15:40:15.794Z,3.37
2019-05-17T15:44:20.341Z,4.30
2019-05-17T15:48:24.889Z,3.25
2019-05-17T15:52:30.638Z,4.35
2019-05-17T15:56:35.168Z,3.92
2019-05-17T16:00:39.766Z,5.20
2019-05-17T16:04:44.302Z,5.45
2019-05-17T16:08:48.921Z,3.22
2019-05-17T16:13:02.520Z,3.10
2019-05-17T16:17:00.529Z,3.10
2019-05-17T16:21:05.142Z,3.30
2019-05-17T16:25:09.841Z,6.62
2019-05-17T16:29:14.379Z,5.25
2019-05-17T16:33:18.919Z,6.55
2019-05-17T16:37:23.512Z,8.80
2019-05-17T16:41:28.133Z,6.05
2019-05-17T16:45:32.694Z,5.95
2019-05-17T16:49:37.243Z,4.25
2019-05-17T16:53:41.777Z,3.60
2019-05-17T16:57:46.321Z,6.53
2019-05-17T17:01:50.906Z,7.58
2019-05-17T17:05:55.461Z,4.55
2019-05-17T17:09:59.989Z,5.50
2019-05-17T17:14:04.797Z,3.70
2019-05-17T17:18:09.333Z,4.12
2019-05-17T17:22:13.865Z,6.45
2019-05-17T17:26:18.394Z,3.40
2019-05-17T17:30:23.098Z,8.33
2019-05-17T17:34:27.636Z,6.97
2019-05-17T17:38:32.263Z,13.00
2019-05-17T17:42:38.405Z,8.48
2019-05-17T17:50:46.722Z,9.23
2019-05-17T17:54:51.261Z,6.75
2019-05-17T17:58:55.825Z,5.25
2019-05-17T18:03:00.359Z,9.60
2019-05-17T18:07:06.711Z,5.53
2019-05-17T18:11:11.318Z,7.28
2019-05-17T18:15:19.174Z,4.25
2019-05-17T18:19:23.757Z,5.40
2019-05-17T18:23:28.265Z,4.50
2019-05-17T18:27:32.817Z,7.75
2019-05-17T18:31:37.437Z,3.92
2019-05-17T18:35:42.021Z,5.15
2019-05-17T18:39:46.705Z,5.03
2019-05-17T18:43:51.242Z,3.62
2019-05-17T18:47:55.982Z,3.47
2019-05-17T18:52:00.534Z,3.45
2019-05-17T18:56:05.142Z,3.55
2019-05-17T19:00:11.546Z,3.42
2019-05-17T19:04:16.086Z,4.10
2019-05-17T19:08:20.626Z,3.20
2019-05-17T19:12:25.183Z,3.58
2019-05-17T19:16:29.802Z,3.12
2019-05-17T19:20:34.369Z,3.05
2019-05-17T19:24:38.944Z,2.90
2019-05-17T19:28:43.506Z,2.92
2019-05-17T19:32:48.063Z,2.70
2019-05-17T19:36:52.610Z,2.75
2019-05-17T19:40:57.234Z,2.75
2019-05-17T19:45:02.025Z,2.50
2019-05-17T19:49:06.641Z,2.60
2019-05-17T19:53:11.197Z,2.58
2019-05-17T19:57:16.123Z,2.40
2019-05-17T20:01:20.702Z,2.60
2019-05-17T20:05:25.241Z,2.40
2019-05-17T20:09:29.769Z,2.67
2019-05-17T20:13:34.317Z,2.90
2019-05-17T20:17:38.842Z,2.55
2019-05-17T20:21:43.385Z,2.70
2019-05-17T20:25:47.929Z,5.25
2019-05-17T20:29:52.653Z,6.30
2019-05-17T20:33:57.221Z,6.65
2019-05-17T20:38:02.805Z,7.78
2019-05-17T20:42:07.630Z,8.90
2019-05-17T20:46:12.170Z,6.62
2019-05-17T20:50:17.026Z,7.37
2019-05-17T20:54:21.601Z,8.70
2019-05-17T20:58:26.196Z,8.28
2019-05-17T21:02:31.098Z,6.05
2019-05-17T21:06:36.026Z,8.23
2019-05-17T21:10:40.560Z,7.45
2019-05-17T21:14:45.332Z,4.08
2019-05-17T21:18:50.436Z,8.27
2019-05-17T21:22:54.974Z,3.65
2019-05-17T21:26:59.542Z,4.30
2019-05-17T21:31:04.158Z,3.67
2019-05-17T21:35:09.167Z,3.52
2019-05-17T21:39:13.721Z,4.03
2019-05-17T21:43:18.351Z,3.67
2019-05-17T21:47:23.111Z,3.72
2019-05-17T21:51:27.667Z,3.85
2019-05-17T21:55:32.253Z,3.08
2019-05-17T21:59:36.780Z,3.20
2019-05-17T22:03:41.445Z,3.00
2019-05-17T22:07:46.045Z,3.00
2019-05-17T22:11:52.525Z,3.02
2019-05-17T22:20:00.752Z,2.98
2019-05-17T22:24:05.309Z,3.02
2019-05-17T22:28:09.939Z,4.47
2019-05-17T22:32:14.527Z,3.12
2019-05-17T22:36:19.192Z,3.62
2019-05-17T22:40:23.735Z,3.08
2019-05-17T22:44:28.371Z,4.28
2019-05-17T22:48:32.973Z,3.33
2019-05-17T22:52:37.538Z,3.52
2019-05-17T22:56:42.103Z,4.22
2019-05-17T23:00:46.638Z,3.40
2019-05-17T23:04:51.166Z,3.42
2019-05-17T23:08:55.691Z,3.35
2019-05-17T23:13:00.245Z,3.52
2019-05-17T23:17:04.816Z,3.22
2019-05-17T23:21:09.361Z,3.37
2019-05-17T23:25:13.882Z,3.60
2019-05-17T23:29:18.417Z,3.25
2019-05-17T23:33:23.037Z,3.45
2019-05-17T23:37:27.586Z,3.35
2019-05-17T23:41:32.134Z,3.45
2019-05-17T23:45:36.667Z,3.17
2019-05-17T23:49:41.205Z,3.60
2019-05-17T23:53:45.741Z,3.20
2019-05-17T23:57:50.317Z,4.15
